Latest Weather Observations for Karijini North

IDW60801

Issued at 5:23 am WST Tuesday 6 December 2022 (issued every 10 minutes, with the page automatically refreshed every 10 minutes)

About weather observations | Map of weather stations | Latest weather observations for WA | Other Formats
Station Details ID: 005098 Name: KARIJINI NORTH Lat: -22.30 Lon: 118.45 Height: 474.0 m
Data from the previous 72 hours. | See also: Recent months at Karijini North
Date/Time
WST
Temp
°C
App
Temp
°C
Dew
Point
°C
Rel
Hum
%
Delta-T
°C
Wind Press
QNH
hPa
Press
MSL
hPa
Rain since
9am
mm
Dir  Spd
km/h
Gust
km/h
Spd
kts
Gust
kts
06/05:00am 31.5 24.8 3.5 17 14.7 SSW 28 43 15 23 1008.3 1004.1 0.0
06/04:30am 31.9 25.1 3.0 16 15.0 SSW 28 44 15 24 1008.2 1004.0 0.0
06/04:00am 31.8 25.0 2.9 16 15.0 SSW 28 39 15 21 1008.1 1003.9 0.0
06/03:30am 32.1 24.5 3.1 16 15.1 SSW 32 43 17 23 1008.0 1003.8 0.0
06/03:00am 32.2 24.9 2.3 15 15.4 SSW 30 43 16 23 1008.1 1003.9 0.0
06/02:30am 32.5 24.5 1.6 14 15.8 SSW 33 46 18 25 1008.2 1004.0 0.0
06/02:01am 32.9 25.4 0.9 13 16.2 SSW 30 48 16 26 1008.2 1004.0 0.0
06/02:00am 32.9 25.7 0.9 13 16.2 SSW 28 44 15 24 1008.2 1004.0 0.0
06/01:30am 33.2 26.1 1.1 13 16.3 SSW 28 46 15 25 1008.2 1004.0 0.0
06/01:15am 33.4 25.4 0.1 12 16.7 SSW 32 50 17 27 1008.3 1004.1 0.0
06/01:00am 33.4 25.7 0.1 12 16.7 SSW 30 43 16 23 1008.4 1004.2 0.0
06/12:30am 33.5 25.8 0.2 12 16.7 SW 30 46 16 25 1008.5 1004.3 0.0
06/12:04am 34.0 26.8 0.6 12 16.9 SW 28 46 15 25 1008.7 1004.5 0.0
06/12:00am 34.0 27.5 0.6 12 16.9 SW 24 41 13 22 1008.7 1004.5 0.0
 
Date/Time
WST
Temp
°C
App
Temp
°C
Dew
Point
°C
Rel
Hum
%
Delta-T
°C
Wind Press
QNH
hPa
Press
MSL
hPa
Rain since
9am
mm
Dir  Spd
km/h
Gust
km/h
Spd
kts
Gust
kts
05/11:43pm 34.3 27.1 0.8 12 17.0 WSW 28 48 15 26 1008.9 1004.8 0.0
05/11:30pm 34.1 28.0 0.7 12 16.9 SW 22 39 12 21 1009.0 1004.9 0.0
05/11:00pm 34.5 28.7 -0.2 11 17.4 SW 20 35 11 19 1009.0 1004.9 0.0
05/10:30pm 35.0 28.9 0.2 11 17.6 SW 22 32 12 17 1008.9 1004.8 0.0
05/10:00pm 35.9 28.5 -0.5 10 18.4 SW 28 43 15 23 1008.9 1004.8 0.0
05/09:30pm 36.2 30.4 -0.2 10 18.4 SW 20 30 11 16 1008.7 1004.5 0.0
05/09:00pm 37.0 31.5 1.7 11 18.5 SW 20 37 11 20 1008.4 1004.2 0.0
05/08:30pm 38.0 32.6 2.5 11 18.9 SW 20 30 11 16 1008.0 1003.8 0.0
05/08:00pm 37.1 34.1 4.1 13 18.0 WSW 9 15 5 8 1007.5 1003.3 0.0
05/07:30pm 38.3 34.5 3.9 12 18.8 SSE 13 17 7 9 1007.2 1003.0 0.0
05/07:00pm 38.2 33.1 6.0 14 18.2 SE 22 33 12 18 1006.9 1002.8 0.0
05/06:30pm 39.6 35.8 3.7 11 19.7 SW 13 19 7 10 1006.6 1002.4 0.0
05/06:00pm 40.1 35.9 4.0 11 20.0 W 15 26 8 14 1006.2 1002.0 0.0
05/05:30pm 40.4 36.3 4.3 11 20.0 WSW 15 20 8 11 1006.0 1001.8 0.0
05/05:00pm 41.1 37.8 4.8 11 20.4 SW 11 20 6 11 1005.8 1001.6 0.0
05/04:30pm 42.6 37.8 4.6 10 21.4 W 19 33 10 18 1005.9 1001.7 0.0
05/04:00pm 42.1 38.4 4.2 10 21.2 SSW 13 20 7 11 1006.0 1001.8 0.0
05/03:30pm 42.0 37.8 5.5 11 20.8 SSW 17 28 9 15 1006.3 1002.1 0.0
05/03:00pm 41.0 38.1 4.7 11 20.4 SE 9 15 5 8 1006.6 1002.4 0.0
05/02:30pm 41.4 38.2 5.0 11 20.5 ESE 11 19 6 10 1007.0 1002.9 0.0
05/02:00pm 41.2 38.7 4.9 11 20.4 SSW 7 17 4 9 1007.6 1003.4 0.0
05/01:30pm 40.7 37.6 5.7 12 19.9 WSW 11 20 6 11 1008.1 1003.9 0.0
05/01:00pm 41.0 36.5 6.0 12 20.0 W 19 26 10 14 1008.6 1004.4 0.0
05/12:30pm 41.0 37.2 6.0 12 20.0 WSW 15 33 8 18 1008.9 1004.8 0.0
05/12:00pm 40.0 36.7 6.4 13 19.2 NW 13 22 7 12 1009.6 1005.4 0.0
05/11:30am 39.9 35.8 6.3 13 19.2 W 17 32 9 17 1009.9 1005.7 0.0
05/11:00am 39.5 36.5 6.0 13 19.0 SSW 11 20 6 11 1010.5 1006.3 0.0
05/10:30am 39.2 34.3 6.8 14 18.5 WSW 22 35 12 19 1010.8 1006.7 0.0
05/10:00am 38.8 34.2 6.5 14 18.4 S 20 33 11 18 1011.0 1006.9 0.0
05/09:30am 37.6 32.8 7.5 16 17.3 SSW 22 35 12 19 1011.2 1007.1 0.0
05/09:00am 36.5 31.6 8.4 18 16.3 SW 24 35 13 19 1011.2 1007.1 0.0
05/08:30am 35.7 30.8 8.5 19 15.7 SSW 24 35 13 19 1011.3 1007.2 0.0
05/08:00am 35.0 29.4 8.7 20 15.2 SSW 28 43 15 23 1011.3 1007.2 0.0
05/07:30am 33.5 27.9 8.9 22 14.2 SSW 28 41 15 22 1011.1 1007.0 0.0
05/07:00am 32.8 26.3 8.3 22 14.0 SW 32 56 17 30 1010.9 1006.8 0.0
05/06:37am 32.2 26.7 9.1 24 13.3 SSW 28 46 15 25 1010.9 1006.8 0.0
05/06:30am 32.0 27.2 8.9 24 13.2 SSW 24 37 13 20 1011.0 1006.9 0.0
05/06:00am 31.6 26.7 8.6 24 13.1 SSW 24 44 13 24 1010.8 1006.7 0.0
05/05:30am 31.1 26.1 8.2 24 12.9 SSW 24 35 13 19 1010.3 1006.1 0.0
05/05:00am 31.6 25.8 8.0 23 13.3 SSW 28 41 15 22 1009.9 1005.7 0.0
05/04:30am 31.9 26.9 8.2 23 13.4 SSW 24 35 13 19 1009.6 1005.4 0.0
05/04:13am 32.0 26.1 7.6 22 13.7 SSW 28 50 15 27 1009.3 1005.2 0.0
05/04:00am 32.0 26.5 7.6 22 13.7 SSW 26 41 14 22 1009.5 1005.3 0.0
05/03:30am 32.3 26.9 7.9 22 13.8 SSW 26 44 14 24 1009.2 1005.1 0.0
05/03:00am 32.2 26.2 7.1 21 14.0 SSW 28 39 15 21 1009.1 1005.0 0.0
05/02:30am 32.3 27.1 7.2 21 14.0 SSW 24 35 13 19 1009.1 1005.0 0.0
05/02:00am 32.5 27.7 7.4 21 14.1 SSW 22 32 12 17 1009.5 1005.3 0.0
05/01:30am 32.9 28.0 7.0 20 14.4 SW 22 33 12 18 1009.5 1005.3 0.0
05/01:00am 33.3 28.5 7.3 20 14.6 SW 22 35 12 19 1009.7 1005.5 0.0
05/12:30am 33.8 28.5 7.0 19 15.0 WSW 24 41 13 22 1009.8 1005.6 0.0
05/12:00am 34.2 29.6 6.5 18 15.4 WSW 20 28 11 15 1010.1 1005.9 0.0
 
Date/Time
WST
Temp
°C
App
Temp
°C
Dew
Point
°C
Rel
Hum
%
Delta-T
°C
Wind Press
QNH
hPa
Press
MSL
hPa
Rain since
9am
mm
Dir  Spd
km/h
Gust
km/h
Spd
kts
Gust
kts
04/11:30pm 34.9 30.8 6.2 17 16.0 SW 17 24 9 13 1010.0 1005.8 0.0
04/11:00pm 35.5 31.5 6.7 17 16.2 WSW 17 30 9 16 1010.0 1005.8 0.0
04/10:30pm 34.0 31.6 7.1 19 15.1 WSW 9 13 5 7 1010.0 1005.8 0.0
04/10:00pm 35.2 32.7 6.5 17 16.1 NW 9 17 5 9 1009.8 1005.6 0.0
04/09:30pm 36.7 33.5 6.8 16 16.9 S 13 22 7 12 1009.3 1005.2 0.0
04/09:00pm 37.1 32.4 6.2 15 17.4 SSW 20 37 11 20 1008.9 1004.8 0.0
04/08:30pm 36.8 32.3 5.9 15 17.3 SSW 19 28 10 15 1008.6 1004.4 0.0
04/08:00pm 37.4 32.0 6.4 15 17.5 SSW 24 35 13 19 1008.6 1004.4 0.0
04/07:30pm 37.2 33.7 5.3 14 17.7 WSW 13 17 7 9 1008.1 1003.9 0.0
04/07:00pm 37.6 33.0 5.6 14 17.9 WSW 19 26 10 14 1007.8 1003.6 0.0
04/06:30pm 38.2 33.8 5.0 13 18.4 W 17 24 9 13 1007.5 1003.3 0.0
04/06:00pm 39.3 35.6 4.7 12 19.3 WNW 13 22 7 12 1007.2 1003.0 0.0
04/05:30pm 40.0 37.0 4.0 11 19.9 W 9 15 5 8 1006.9 1002.8 0.0
04/05:00pm 41.0 36.3 3.4 10 20.7 WNW 17 20 9 11 1006.7 1002.5 0.0
04/04:30pm 41.1 36.8 3.4 10 20.7 WNW 15 22 8 12 1006.7 1002.5 0.0
04/04:00pm 41.4 36.8 3.7 10 20.9 N 17 26 9 14 1006.6 1002.4 0.0
04/03:30pm 40.4 36.7 4.3 11 20.0 NW 13 22 7 12 1006.8 1002.7 0.0
04/03:00pm 40.5 37.5 4.3 11 20.1 N 9 20 5 11 1006.9 1002.8 0.0
04/02:30pm 41.5 38.0 3.7 10 20.9 NNW 11 24 6 13 1007.3 1003.1 0.0
04/02:00pm 41.6 37.8 3.8 10 21.0 ENE 13 22 7 12 1007.7 1003.5 0.0
04/01:30pm 41.3 37.8 3.6 10 20.8 SSW 11 20 6 11 1008.2 1004.0 0.0
04/01:00pm 41.0 36.6 4.7 11 20.4 WNW 17 30 9 16 1008.7 1004.5 0.0
04/12:30pm 40.2 37.3 6.5 13 19.3 WSW 11 20 6 11 1008.9 1004.8 0.0
04/12:00pm 40.4 36.4 6.7 13 19.4 S 17 26 9 14 1009.3 1005.2 0.0
04/11:30am 39.2 36.4 6.8 14 18.5 SW 11 20 6 11 1009.8 1005.6 0.0
04/11:00am 39.6 36.1 7.1 14 18.7 SSE 15 26 8 14 1010.2 1006.0 0.0
04/10:30am 38.6 34.8 7.4 15 18.0 S 17 26 9 14 1010.6 1006.4 0.0
04/10:00am 37.8 33.5 7.7 16 17.4 SW 20 32 11 17 1010.9 1006.8 0.0
04/09:30am 37.2 32.4 7.2 16 17.1 SSW 22 33 12 18 1010.9 1006.8 0.0
04/09:00am 36.1 29.8 7.2 17 16.4 SW 30 41 16 22 1010.9 1006.8 0.0
04/08:30am 35.2 29.3 7.3 18 15.8 SSW 28 41 15 22 1010.9 1006.8 0.0
04/08:02am 34.6 28.3 7.6 19 15.3 SSW 30 48 16 26 1010.7 1006.6 0.0
04/08:00am 34.1 27.4 7.2 19 15.2 SSW 32 48 17 26 1010.7 1006.6 0.0
04/07:30am 33.6 27.0 7.6 20 14.7 SSW 32 44 17 24 1010.5 1006.3 0.0
04/07:00am 32.7 26.4 7.5 21 14.2 SSW 30 44 16 24 1010.2 1006.0 0.0
04/06:34am 32.0 25.9 8.3 23 13.4 SSW 30 48 16 26 1010.0 1005.8 0.0
04/06:30am 31.8 25.3 8.1 23 13.4 SSW 32 48 17 26 1009.9 1005.7 0.0
04/06:01am 31.2 24.7 8.2 24 13.0 SSW 32 50 17 27 1009.8 1005.6 0.0
04/06:00am 31.2 24.5 8.2 24 13.0 SSW 33 50 18 27 1009.8 1005.6 0.0
04/05:53am 31.1 25.0 8.2 24 12.9 SW 30 48 16 26 1009.8 1005.6 0.0
04/05:30am 30.9 24.9 8.6 25 12.6 SW 30 44 16 24 1009.6 1005.4 0.0
04/05:15am 31.1 24.6 8.2 24 12.9 SSW 32 54 17 29 1009.2 1005.1 0.0
04/05:00am 31.1 24.6 8.2 24 12.9 SW 32 48 17 26 1009.0 1004.9 0.0
04/04:32am 31.3 25.6 8.3 24 13.0 SW 28 46 15 25 1009.0 1004.9 0.0
04/04:30am 31.3 25.2 8.3 24 13.0 SW 30 46 16 25 1009.0 1004.9 0.0
04/04:16am 31.4 25.7 8.4 24 13.0 SSW 28 46 15 25 1008.8 1004.7 0.0
04/04:00am 31.6 26.0 8.6 24 13.1 SSW 28 39 15 21 1008.7 1004.5 0.0
04/03:30am 31.4 27.8 8.4 24 13.0 SW 17 26 9 14 1008.5 1004.3 0.0
04/03:00am 31.7 28.2 8.7 24 13.1 SW 17 22 9 12 1008.5 1004.3 0.0
04/02:30am 31.7 28.6 8.7 24 13.1 WSW 15 20 8 11 1008.5 1004.3 0.0
04/02:00am 32.0 29.3 8.9 24 13.2 W 13 20 7 11 1008.5 1004.3 0.0
04/01:30am 32.5 29.0 8.7 23 13.6 W 17 20 9 11 1008.7 1004.5 0.0
04/01:00am 33.6 29.4 8.3 21 14.5 WSW 20 33 11 18 1008.8 1004.7 0.0
04/12:30am 33.8 29.3 8.4 21 14.5 WSW 22 33 12 18 1008.9 1004.8 0.0
04/12:00am 31.2 30.8 11.1 29 11.9 NNW 4 7 2 4 1008.9 1004.8 0.0
 
Date/Time
WST
Temp
°C
App
Temp
°C
Dew
Point
°C
Rel
Hum
%
Delta-T
°C
Wind Press
QNH
hPa
Press
MSL
hPa
Rain since
9am
mm
Dir  Spd
km/h
Gust
km/h
Spd
kts
Gust
kts
03/11:30pm 32.1 30.0 11.3 28 12.4 WNW 13 20 7 11 1009.0 1004.9 0.0
03/11:00pm 32.6 32.6 11.2 27 12.7 W 2 11 1 6 1009.2 1005.1 0.0
03/10:30pm 32.8 30.7 11.3 27 12.8 NW 13 24 7 13 1009.2 1005.1 0.0
03/10:00pm 33.7 30.4 10.9 25 13.6 NW 19 28 10 15 1009.1 1005.0 0.0
03/09:30pm 34.7 31.7 11.8 25 13.9 NW 19 28 10 15 1009.0 1004.9 0.0
03/09:00pm 35.3 33.0 11.7 24 14.3 NW 15 22 8 12 1008.8 1004.7 0.0
03/08:30pm 35.8 33.6 6.1 16 16.6 WSW 7 7 4 4 1008.1 1003.9 0.0
03/08:00pm 36.2 33.5 5.5 15 17.0 WSW 9 11 5 6 1007.8 1003.6 0.0
03/07:30pm 36.7 33.8 4.9 14 17.5 W 9 11 5 6 1007.5 1003.3 0.0
03/07:00pm 38.1 35.2 4.9 13 18.4 W 9 11 5 6 1007.2 1003.0 0.0
03/06:30pm 39.2 35.5 4.6 12 19.2 NW 13 17 7 9 1006.8 1002.7 0.0
03/06:00pm 40.1 36.3 4.0 11 20.0 NW 13 20 7 11 1006.4 1002.2 0.0
03/05:30pm 40.4 36.7 4.3 11 20.0 W 13 20 7 11 1006.2 1002.0 0.0
03/05:00pm 40.9 38.0 4.6 11 20.3 W 9 19 5 10 1006.0 1001.8 0.0
03/04:30pm 40.3 35.8 4.2 11 20.0 WSW 17 24 9 13 1005.9 1001.7 0.0
03/04:00pm 41.3 37.4 3.6 10 20.9 SW 13 20 7 11 1005.9 1001.7 0.0
03/03:30pm 41.6 36.4 3.8 10 20.9 WNW 20 33 11 18 1005.9 1001.7 0.0
03/03:00pm 39.6 36.0 4.9 12 19.4 N 13 19 7 10 1006.3 1002.1 0.0
03/02:30pm 40.2 37.1 5.4 12 19.6 SW 11 20 6 11 1006.5 1002.3 0.0
03/02:00pm 40.0 37.6 5.2 12 19.6 N 7 15 4 8 1006.9 1002.8 0.0
03/01:30pm 39.6 35.2 4.9 12 19.4 NW 17 24 9 13 1007.4 1003.2 0.0
03/01:00pm 39.5 36.1 6.0 13 19.0 S 13 15 7 8 1007.6 1003.4 0.0
03/12:30pm 39.7 35.3 5.0 12 19.4 NW 17 28 9 15 1008.1 1003.9 0.0
03/12:00pm 39.3 35.9 5.8 13 18.9 SSW 13 20 7 11 1008.4 1004.2 0.0
03/11:30am 39.1 35.3 5.7 13 18.8 SSW 15 24 8 13 1008.9 1004.8 0.0
03/11:00am 39.4 36.0 5.9 13 19.0 SW 13 24 7 13 1009.2 1005.1 0.0
03/10:30am 38.1 34.2 7.0 15 17.8 W 17 28 9 15 1009.7 1005.5 0.0
03/10:00am 37.6 34.6 7.5 16 17.3 S 13 20 7 11 1009.9 1005.7 0.0
03/09:30am 36.1 32.2 7.2 17 16.4 SW 17 26 9 14 1010.0 1005.8 0.0
03/09:00am 35.4 32.0 7.5 18 15.9 W 15 26 8 14 1010.3 1006.1 0.0
03/08:30am 34.5 31.6 8.3 20 15.0 WSW 13 22 7 12 1010.3 1006.1 0.0
03/08:00am 33.0 29.3 7.8 21 14.3 WSW 17 26 9 14 1010.4 1006.2 0.0
03/07:30am 32.3 28.6 7.9 22 13.8 W 17 20 9 11 1010.1 1005.9 0.0
03/07:00am 30.3 29.3 10.3 29 11.6 NW 6 9 3 5 1009.9 1005.7 0.0
03/06:30am 28.1 28.0 10.8 34 10.0 NW 2 7 1 4 1009.6 1005.4 0.0
03/06:00am 26.9 27.3 11.4 38 9.0 CALM 0 0 0 0 1009.1 1005.0 0.0
03/05:30am 24.5 24.8 10.8 42 7.8 CALM 0 0 0 0 1008.7 1004.5 0.0

Other formats

Comma delimited format used in spreadsheet applications
http://www.bom.gov.au/fwo/IDW60801/IDW60801.94330.axf

JavaScript Object Notation format (JSON) in row-major order
http://www.bom.gov.au/fwo/IDW60801/IDW60801.94330.json

Data quality

Most of these data are generated automatically and are frequently updated. Quality checks on data are not normally performed. It is possible for incorrect values to appear. Refer to information at About Latest Weather Observations and please check the disclaimer before using these data.